sensor_id;sensor_type;location;lat;lon;timestamp;temperature;humidity
21662;DHT22;10992;48.170;8.596;2022-08-21T00:01:50;12.40;99.90
21662;DHT22;10992;48.170;8.596;2022-08-21T00:04:17;12.30;99.90
21662;DHT22;10992;48.170;8.596;2022-08-21T00:06:49;12.30;99.90
21662;DHT22;10992;48.170;8.596;2022-08-21T00:09:16;12.30;99.90
21662;DHT22;10992;48.170;8.596;2022-08-21T00:11:44;12.30;99.90
21662;DHT22;10992;48.170;8.596;2022-08-21T00:14:12;12.20;99.90
21662;DHT22;10992;48.170;8.596;2022-08-21T00:16:40;12.30;99.90
21662;DHT22;10992;48.170;8.596;2022-08-21T00:19:07;12.10;99.90
21662;DHT22;10992;48.170;8.596;2022-08-21T00:21:35;12.00;99.90
21662;DHT22;10992;48.170;8.596;2022-08-21T00:24:02;11.90;99.90
21662;DHT22;10992;48.170;8.596;2022-08-21T00:26:29;11.90;99.90
21662;DHT22;10992;48.170;8.596;2022-08-21T00:28:56;11.80;99.90
21662;DHT22;10992;48.170;8.596;2022-08-21T00:31:24;11.70;99.90
21662;DHT22;10992;48.170;8.596;2022-08-21T00:33:51;11.70;99.90
21662;DHT22;10992;48.170;8.596;2022-08-21T00:36:26;11.80;99.90
21662;DHT22;10992;48.170;8.596;2022-08-21T00:38:53;11.80;99.90
21662;DHT22;10992;48.170;8.596;2022-08-21T00:41:20;11.80;99.90
21662;DHT22;10992;48.170;8.596;2022-08-21T00:44:10;11.70;99.90
21662;DHT22;10992;48.170;8.596;2022-08-21T00:46:38;11.60;99.90
21662;DHT22;10992;48.170;8.596;2022-08-21T00:49:06;11.60;99.90
21662;DHT22;10992;48.170;8.596;2022-08-21T00:51:55;11.70;99.90
21662;DHT22;10992;48.170;8.596;2022-08-21T00:54:26;11.90;99.90
21662;DHT22;10992;48.170;8.596;2022-08-21T00:56:57;11.80;99.90
21662;DHT22;10992;48.170;8.596;2022-08-21T00:59:28;11.80;99.90
21662;DHT22;10992;48.170;8.596;2022-08-21T01:01:56;11.70;99.90
21662;DHT22;10992;48.170;8.596;2022-08-21T01:04:23;11.70;99.90
21662;DHT22;10992;48.170;8.596;2022-08-21T01:06:50;11.60;99.90
21662;DHT22;10992;48.170;8.596;2022-08-21T01:09:18;11.60;99.90
21662;DHT22;10992;48.170;8.596;2022-08-21T01:11:46;11.60;99.90
21662;DHT22;10992;48.170;8.596;2022-08-21T01:14:14;11.60;99.90
21662;DHT22;10992;48.170;8.596;2022-08-21T01:16:44;11.60;99.90
21662;DHT22;10992;48.170;8.596;2022-08-21T01:19:12;11.60;99.90
21662;DHT22;10992;48.170;8.596;2022-08-21T01:21:41;11.60;99.90
21662;DHT22;10992;48.170;8.596;2022-08-21T01:24:10;11.60;99.90
21662;DHT22;10992;48.170;8.596;2022-08-21T01:26:38;11.60;99.90
21662;DHT22;10992;48.170;8.596;2022-08-21T01:29:07;11.60;99.90
21662;DHT22;10992;48.170;8.596;2022-08-21T01:31:37;11.60;99.90
21662;DHT22;10992;48.170;8.596;2022-08-21T01:34:04;11.50;99.90
21662;DHT22;10992;48.170;8.596;2022-08-21T01:36:32;11.50;99.90
21662;DHT22;10992;48.170;8.596;2022-08-21T01:38:59;11.50;99.90
21662;DHT22;10992;48.170;8.596;2022-08-21T01:41:26;11.40;99.90
21662;DHT22;10992;48.170;8.596;2022-08-21T01:43:52;11.40;99.90
21662;DHT22;10992;48.170;8.596;2022-08-21T01:46:19;11.40;99.90
21662;DHT22;10992;48.170;8.596;2022-08-21T01:48:46;11.30;99.90
21662;DHT22;10992;48.170;8.596;2022-08-21T01:51:13;11.40;99.90
21662;DHT22;10992;48.170;8.596;2022-08-21T01:53:40;11.40;99.90
21662;DHT22;10992;48.170;8.596;2022-08-21T01:56:10;11.40;99.90
21662;DHT22;10992;48.170;8.596;2022-08-21T01:58:40;11.20;99.90
21662;DHT22;10992;48.170;8.596;2022-08-21T02:01:08;11.20;99.90
21662;DHT22;10992;48.170;8.596;2022-08-21T02:03:36;11.30;99.90
21662;DHT22;10992;48.170;8.596;2022-08-21T02:06:05;11.20;99.90
21662;DHT22;10992;48.170;8.596;2022-08-21T02:08:33;11.20;99.90
21662;DHT22;10992;48.170;8.596;2022-08-21T02:11:00;11.20;99.90
21662;DHT22;10992;48.170;8.596;2022-08-21T02:13:27;11.10;99.90
21662;DHT22;10992;48.170;8.596;2022-08-21T02:15:54;11.10;99.90
21662;DHT22;10992;48.170;8.596;2022-08-21T02:18:21;11.00;99.90
21662;DHT22;10992;48.170;8.596;2022-08-21T02:20:49;11.00;99.90
21662;DHT22;10992;48.170;8.596;2022-08-21T02:23:23;10.80;99.90
21662;DHT22;10992;48.170;8.596;2022-08-21T02:25:54;10.80;99.90
21662;DHT22;10992;48.170;8.596;2022-08-21T02:28:21;10.90;99.90
21662;DHT22;10992;48.170;8.596;2022-08-21T02:30:49;10.90;99.90
21662;DHT22;10992;48.170;8.596;2022-08-21T02:33:17;11.00;99.90
21662;DHT22;10992;48.170;8.596;2022-08-21T02:35:46;11.00;99.90
21662;DHT22;10992;48.170;8.596;2022-08-21T02:38:17;10.80;99.90
21662;DHT22;10992;48.170;8.596;2022-08-21T02:40:46;10.70;99.90
21662;DHT22;10992;48.170;8.596;2022-08-21T02:43:18;10.60;99.90
21662;DHT22;10992;48.170;8.596;2022-08-21T02:45:46;10.70;99.90
21662;DHT22;10992;48.170;8.596;2022-08-21T02:48:17;10.70;99.90
21662;DHT22;10992;48.170;8.596;2022-08-21T02:50:47;10.70;99.90
21662;DHT22;10992;48.170;8.596;2022-08-21T02:53:16;10.70;99.90
21662;DHT22;10992;48.170;8.596;2022-08-21T02:55:48;10.60;99.90
21662;DHT22;10992;48.170;8.596;2022-08-21T02:58:19;10.50;99.90
21662;DHT22;10992;48.170;8.596;2022-08-21T03:00:46;10.50;99.90
21662;DHT22;10992;48.170;8.596;2022-08-21T03:03:13;10.40;99.90
21662;DHT22;10992;48.170;8.596;2022-08-21T03:05:42;10.40;99.90
21662;DHT22;10992;48.170;8.596;2022-08-21T03:08:11;10.30;99.90
21662;DHT22;10992;48.170;8.596;2022-08-21T03:10:44;10.30;99.90
21662;DHT22;10992;48.170;8.596;2022-08-21T03:13:13;10.40;99.90
21662;DHT22;10992;48.170;8.596;2022-08-21T03:15:41;10.30;99.90
21662;DHT22;10992;48.170;8.596;2022-08-21T03:18:09;10.30;99.90
21662;DHT22;10992;48.170;8.596;2022-08-21T03:20:39;10.40;99.90
21662;DHT22;10992;48.170;8.596;2022-08-21T03:23:07;10.30;99.90
21662;DHT22;10992;48.170;8.596;2022-08-21T03:25:42;10.30;99.90
21662;DHT22;10992;48.170;8.596;2022-08-21T03:28:13;10.20;99.90
21662;DHT22;10992;48.170;8.596;2022-08-21T03:30:41;10.20;99.90
21662;DHT22;10992;48.170;8.596;2022-08-21T03:33:08;10.30;99.90
21662;DHT22;10992;48.170;8.596;2022-08-21T03:35:38;10.40;99.90
21662;DHT22;10992;48.170;8.596;2022-08-21T03:38:06;10.50;99.90
21662;DHT22;10992;48.170;8.596;2022-08-21T03:40:34;10.40;99.90
21662;DHT22;10992;48.170;8.596;2022-08-21T03:43:01;10.40;99.90
21662;DHT22;10992;48.170;8.596;2022-08-21T03:45:28;10.30;99.90
21662;DHT22;10992;48.170;8.596;2022-08-21T03:47:58;10.30;99.90
21662;DHT22;10992;48.170;8.596;2022-08-21T03:50:27;10.20;99.90
21662;DHT22;10992;48.170;8.596;2022-08-21T03:52:55;10.20;99.90
21662;DHT22;10992;48.170;8.596;2022-08-21T03:55:24;10.20;99.90
21662;DHT22;10992;48.170;8.596;2022-08-21T03:57:51;10.30;99.90
21662;DHT22;10992;48.170;8.596;2022-08-21T04:00:19;10.20;99.90
21662;DHT22;10992;48.170;8.596;2022-08-21T04:02:47;10.20;99.90
21662;DHT22;10992;48.170;8.596;2022-08-21T04:05:16;10.10;99.90
21662;DHT22;10992;48.170;8.596;2022-08-21T04:08:00;10.10;99.90
21662;DHT22;10992;48.170;8.596;2022-08-21T04:10:29;10.00;99.90
21662;DHT22;10992;48.170;8.596;2022-08-21T04:12:57;9.90;99.90
21662;DHT22;10992;48.170;8.596;2022-08-21T04:15:25;9.90;99.90
21662;DHT22;10992;48.170;8.596;2022-08-21T04:17:52;10.00;99.90
21662;DHT22;10992;48.170;8.596;2022-08-21T04:20:21;10.00;99.90
21662;DHT22;10992;48.170;8.596;2022-08-21T04:22:49;10.00;99.90
21662;DHT22;10992;48.170;8.596;2022-08-21T04:25:19;9.90;99.90
21662;DHT22;10992;48.170;8.596;2022-08-21T04:27:46;10.00;99.90
21662;DHT22;10992;48.170;8.596;2022-08-21T04:30:14;9.90;99.90
21662;DHT22;10992;48.170;8.596;2022-08-21T04:32:46;9.70;99.90
21662;DHT22;10992;48.170;8.596;2022-08-21T04:35:19;9.80;99.90
21662;DHT22;10992;48.170;8.596;2022-08-21T04:37:47;9.70;99.90
21662;DHT22;10992;48.170;8.596;2022-08-21T04:40:16;9.70;99.90
21662;DHT22;10992;48.170;8.596;2022-08-21T04:42:47;9.80;99.90
21662;DHT22;10992;48.170;8.596;2022-08-21T04:45:26;10.00;99.90
21662;DHT22;10992;48.170;8.596;2022-08-21T04:47:56;10.00;99.90
21662;DHT22;10992;48.170;8.596;2022-08-21T04:50:27;10.00;99.90
21662;DHT22;10992;48.170;8.596;2022-08-21T04:53:04;10.10;99.90
21662;DHT22;10992;48.170;8.596;2022-08-21T04:55:32;10.10;99.90
21662;DHT22;10992;48.170;8.596;2022-08-21T04:57:59;10.10;99.90
21662;DHT22;10992;48.170;8.596;2022-08-21T05:00:26;10.20;99.90
21662;DHT22;10992;48.170;8.596;2022-08-21T05:02:54;10.30;99.90
21662;DHT22;10992;48.170;8.596;2022-08-21T05:05:28;10.30;99.90
21662;DHT22;10992;48.170;8.596;2022-08-21T05:07:57;10.40;99.90
21662;DHT22;10992;48.170;8.596;2022-08-21T05:10:25;10.50;99.90
21662;DHT22;10992;48.170;8.596;2022-08-21T05:12:52;10.50;99.90
21662;DHT22;10992;48.170;8.596;2022-08-21T05:15:20;10.60;99.90
21662;DHT22;10992;48.170;8.596;2022-08-21T05:17:47;10.70;99.90
21662;DHT22;10992;48.170;8.596;2022-08-21T05:20:27;10.80;99.90
21662;DHT22;10992;48.170;8.596;2022-08-21T05:22:55;10.80;99.90
21662;DHT22;10992;48.170;8.596;2022-08-21T05:25:22;11.00;99.90
21662;DHT22;10992;48.170;8.596;2022-08-21T05:27:49;12.00;99.90
21662;DHT22;10992;48.170;8.596;2022-08-21T05:30:18;13.60;99.90
21662;DHT22;10992;48.170;8.596;2022-08-21T05:32:46;15.10;99.90
21662;DHT22;10992;48.170;8.596;2022-08-21T05:35:14;15.90;99.90
21662;DHT22;10992;48.170;8.596;2022-08-21T05:37:41;16.50;99.90
21662;DHT22;10992;48.170;8.596;2022-08-21T05:40:08;17.10;99.90
21662;DHT22;10992;48.170;8.596;2022-08-21T05:42:53;18.00;99.90
21662;DHT22;10992;48.170;8.596;2022-08-21T05:45:22;19.60;99.90
21662;DHT22;10992;48.170;8.596;2022-08-21T05:48:17;20.90;99.90
21662;DHT22;10992;48.170;8.596;2022-08-21T05:50:47;21.70;99.90
21662;DHT22;10992;48.170;8.596;2022-08-21T05:53:15;22.00;99.90
21662;DHT22;10992;48.170;8.596;2022-08-21T05:55:43;22.40;99.90
21662;DHT22;10992;48.170;8.596;2022-08-21T05:58:19;22.90;99.90
21662;DHT22;10992;48.170;8.596;2022-08-21T06:00:49;24.20;99.90
21662;DHT22;10992;48.170;8.596;2022-08-21T06:03:22;25.00;99.90
21662;DHT22;10992;48.170;8.596;2022-08-21T06:05:49;25.40;99.90
21662;DHT22;10992;48.170;8.596;2022-08-21T06:08:17;25.80;99.90
21662;DHT22;10992;48.170;8.596;2022-08-21T06:10:45;24.60;99.90
21662;DHT22;10992;48.170;8.596;2022-08-21T06:13:13;23.30;99.90
21662;DHT22;10992;48.170;8.596;2022-08-21T06:15:40;22.30;99.90
21662;DHT22;10992;48.170;8.596;2022-08-21T06:18:07;22.20;99.90
21662;DHT22;10992;48.170;8.596;2022-08-21T06:20:34;22.50;99.90
21662;DHT22;10992;48.170;8.596;2022-08-21T06:23:01;23.00;99.90
21662;DHT22;10992;48.170;8.596;2022-08-21T06:25:28;22.80;99.90
21662;DHT22;10992;48.170;8.596;2022-08-21T06:28:06;21.90;99.90
21662;DHT22;10992;48.170;8.596;2022-08-21T06:30:34;21.80;99.90
21662;DHT22;10992;48.170;8.596;2022-08-21T06:33:01;22.00;99.90
21662;DHT22;10992;48.170;8.596;2022-08-21T06:35:29;21.90;99.90
21662;DHT22;10992;48.170;8.596;2022-08-21T06:37:56;23.20;99.90
21662;DHT22;10992;48.170;8.596;2022-08-21T06:40:25;24.10;99.90
21662;DHT22;10992;48.170;8.596;2022-08-21T06:42:53;25.20;99.90
21662;DHT22;10992;48.170;8.596;2022-08-21T06:45:21;24.50;99.90
21662;DHT22;10992;48.170;8.596;2022-08-21T06:47:48;24.10;99.90
21662;DHT22;10992;48.170;8.596;2022-08-21T06:50:15;25.70;99.90
21662;DHT22;10992;48.170;8.596;2022-08-21T06:52:42;25.90;99.90
21662;DHT22;10992;48.170;8.596;2022-08-21T06:55:10;26.20;99.90
21662;DHT22;10992;48.170;8.596;2022-08-21T06:57:38;26.50;99.90
21662;DHT22;10992;48.170;8.596;2022-08-21T07:00:06;25.60;99.90
21662;DHT22;10992;48.170;8.596;2022-08-21T07:02:34;24.60;99.90
21662;DHT22;10992;48.170;8.596;2022-08-21T07:05:07;22.90;99.90
21662;DHT22;10992;48.170;8.596;2022-08-21T07:07:44;21.90;99.90
21662;DHT22;10992;48.170;8.596;2022-08-21T07:10:11;21.60;99.90
21662;DHT22;10992;48.170;8.596;2022-08-21T07:12:49;22.30;99.90
21662;DHT22;10992;48.170;8.596;2022-08-21T07:15:18;23.10;99.90
21662;DHT22;10992;48.170;8.596;2022-08-21T07:17:45;23.10;99.90
21662;DHT22;10992;48.170;8.596;2022-08-21T07:20:12;23.20;99.90
21662;DHT22;10992;48.170;8.596;2022-08-21T07:22:39;22.70;99.90
21662;DHT22;10992;48.170;8.596;2022-08-21T07:25:07;22.70;99.90
21662;DHT22;10992;48.170;8.596;2022-08-21T07:27:34;22.00;99.90
21662;DHT22;10992;48.170;8.596;2022-08-21T07:30:01;21.50;99.90
21662;DHT22;10992;48.170;8.596;2022-08-21T07:32:28;21.20;99.90
21662;DHT22;10992;48.170;8.596;2022-08-21T07:34:55;20.80;99.90
21662;DHT22;10992;48.170;8.596;2022-08-21T07:37:22;20.70;99.90
21662;DHT22;10992;48.170;8.596;2022-08-21T07:39:49;20.10;99.90
21662;DHT22;10992;48.170;8.596;2022-08-21T07:42:17;19.60;99.90
21662;DHT22;10992;48.170;8.596;2022-08-21T07:44:44;19.60;99.90
21662;DHT22;10992;48.170;8.596;2022-08-21T07:47:14;20.30;99.90
21662;DHT22;10992;48.170;8.596;2022-08-21T07:49:55;22.00;99.90
21662;DHT22;10992;48.170;8.596;2022-08-21T07:52:22;24.20;99.90
21662;DHT22;10992;48.170;8.596;2022-08-21T07:54:49;26.00;99.90
21662;DHT22;10992;48.170;8.596;2022-08-21T07:57:15;27.60;99.90
21662;DHT22;10992;48.170;8.596;2022-08-21T07:59:47;28.40;99.90
21662;DHT22;10992;48.170;8.596;2022-08-21T08:02:28;28.00;99.90
21662;DHT22;10992;48.170;8.596;2022-08-21T08:05:04;27.70;99.90
21662;DHT22;10992;48.170;8.596;2022-08-21T08:07:31;29.00;99.90
21662;DHT22;10992;48.170;8.596;2022-08-21T08:09:58;29.60;99.90
21662;DHT22;10992;48.170;8.596;2022-08-21T08:12:25;28.70;99.90
21662;DHT22;10992;48.170;8.596;2022-08-21T08:14:57;29.50;99.90
21662;DHT22;10992;48.170;8.596;2022-08-21T08:17:24;28.70;99.90
21662;DHT22;10992;48.170;8.596;2022-08-21T08:19:52;28.30;99.90
21662;DHT22;10992;48.170;8.596;2022-08-21T08:22:21;28.50;99.90
21662;DHT22;10992;48.170;8.596;2022-08-21T08:24:51;29.70;99.90
21662;DHT22;10992;48.170;8.596;2022-08-21T08:27:18;30.80;99.90
21662;DHT22;10992;48.170;8.596;2022-08-21T08:29:46;31.10;99.90
21662;DHT22;10992;48.170;8.596;2022-08-21T08:32:14;31.20;99.90
21662;DHT22;10992;48.170;8.596;2022-08-21T08:34:41;30.80;99.90
21662;DHT22;10992;48.170;8.596;2022-08-21T08:37:09;30.50;99.90
21662;DHT22;10992;48.170;8.596;2022-08-21T08:39:36;31.50;99.10
21662;DHT22;10992;48.170;8.596;2022-08-21T08:42:08;31.80;99.10
21662;DHT22;10992;48.170;8.596;2022-08-21T08:45:09;31.00;98.70
21662;DHT22;10992;48.170;8.596;2022-08-21T08:47:40;31.60;99.70
21662;DHT22;10992;48.170;8.596;2022-08-21T08:50:24;30.80;97.70
21662;DHT22;10992;48.170;8.596;2022-08-21T08:52:58;29.40;99.90
21662;DHT22;10992;48.170;8.596;2022-08-21T08:55:42;30.10;99.30
21662;DHT22;10992;48.170;8.596;2022-08-21T08:58:16;29.90;98.00
21662;DHT22;10992;48.170;8.596;2022-08-21T09:00:47;30.10;98.30
21662;DHT22;10992;48.170;8.596;2022-08-21T09:03:15;30.10;96.60
21662;DHT22;10992;48.170;8.596;2022-08-21T09:05:50;28.40;96.40
21662;DHT22;10992;48.170;8.596;2022-08-21T09:11:15;28.60;97.60
21662;DHT22;10992;48.170;8.596;2022-08-21T09:16:58;27.70;97.10
21662;DHT22;10992;48.170;8.596;2022-08-21T09:19:51;27.50;96.80
21662;DHT22;10992;48.170;8.596;2022-08-21T09:23:00;27.00;96.60
21662;DHT22;10992;48.170;8.596;2022-08-21T09:25:25;27.70;96.70
21662;DHT22;10992;48.170;8.596;2022-08-21T09:27:53;28.80;95.20
21662;DHT22;10992;48.170;8.596;2022-08-21T09:30:27;29.00;93.60
21662;DHT22;10992;48.170;8.596;2022-08-21T09:32:54;28.80;93.40
21662;DHT22;10992;48.170;8.596;2022-08-21T09:35:23;28.70;94.60
21662;DHT22;10992;48.170;8.596;2022-08-21T09:38:02;28.60;94.20
21662;DHT22;10992;48.170;8.596;2022-08-21T09:40:56;28.10;94.50
21662;DHT22;10992;48.170;8.596;2022-08-21T09:43:23;27.10;94.60
21662;DHT22;10992;48.170;8.596;2022-08-21T09:46:08;26.90;96.20
21662;DHT22;10992;48.170;8.596;2022-08-21T09:48:45;27.90;95.20
21662;DHT22;10992;48.170;8.596;2022-08-21T09:51:20;28.60;94.50
21662;DHT22;10992;48.170;8.596;2022-08-21T09:53:55;29.70;95.00
21662;DHT22;10992;48.170;8.596;2022-08-21T09:56:31;30.10;96.80
21662;DHT22;10992;48.170;8.596;2022-08-21T09:59:25;28.40;96.20
21662;DHT22;10992;48.170;8.596;2022-08-21T10:01:53;28.50;95.80
21662;DHT22;10992;48.170;8.596;2022-08-21T10:04:24;29.90;94.00
21662;DHT22;10992;48.170;8.596;2022-08-21T10:06:53;29.80;95.10
21662;DHT22;10992;48.170;8.596;2022-08-21T10:09:23;29.10;95.50
21662;DHT22;10992;48.170;8.596;2022-08-21T10:20:20;28.80;95.90
21662;DHT22;10992;48.170;8.596;2022-08-21T10:23:18;28.50;95.70
21662;DHT22;10992;48.170;8.596;2022-08-21T10:26:29;27.80;96.70
21662;DHT22;10992;48.170;8.596;2022-08-21T10:35:08;29.40;96.40
21662;DHT22;10992;48.170;8.596;2022-08-21T10:43:44;29.50;93.70
21662;DHT22;10992;48.170;8.596;2022-08-21T11:00:06;30.70;90.40
21662;DHT22;10992;48.170;8.596;2022-08-21T11:05:27;28.20;91.90
21662;DHT22;10992;48.170;8.596;2022-08-21T11:08:11;28.50;92.90
21662;DHT22;10992;48.170;8.596;2022-08-21T11:13:53;28.20;93.20
21662;DHT22;10992;48.170;8.596;2022-08-21T11:16:42;27.80;92.10
21662;DHT22;10992;48.170;8.596;2022-08-21T11:19:15;27.90;93.00
21662;DHT22;10992;48.170;8.596;2022-08-21T11:21:48;27.10;94.90
21662;DHT22;10992;48.170;8.596;2022-08-21T11:24:35;27.40;92.00
21662;DHT22;10992;48.170;8.596;2022-08-21T11:29:54;28.60;90.70
21662;DHT22;10992;48.170;8.596;2022-08-21T11:46:08;29.40;83.60
21662;DHT22;10992;48.170;8.596;2022-08-21T11:51:17;29.70;87.70
21662;DHT22;10992;48.170;8.596;2022-08-21T11:53:55;30.80;84.00
21662;DHT22;10992;48.170;8.596;2022-08-21T11:56:28;29.50;81.60
21662;DHT22;10992;48.170;8.596;2022-08-21T11:59:02;27.70;84.30
21662;DHT22;10992;48.170;8.596;2022-08-21T12:01:43;28.90;85.60
21662;DHT22;10992;48.170;8.596;2022-08-21T12:04:32;29.50;86.70
21662;DHT22;10992;48.170;8.596;2022-08-21T12:07:17;28.50;79.20
21662;DHT22;10992;48.170;8.596;2022-08-21T12:09:56;28.10;82.80
21662;DHT22;10992;48.170;8.596;2022-08-21T12:12:29;28.70;83.50
21662;DHT22;10992;48.170;8.596;2022-08-21T12:18:00;26.90;83.30
21662;DHT22;10992;48.170;8.596;2022-08-21T12:25:46;26.70;84.00
21662;DHT22;10992;48.170;8.596;2022-08-21T12:28:23;26.10;85.80
21662;DHT22;10992;48.170;8.596;2022-08-21T12:30:50;27.70;84.10
21662;DHT22;10992;48.170;8.596;2022-08-21T12:36:13;28.50;82.30
21662;DHT22;10992;48.170;8.596;2022-08-21T12:41:26;28.50;82.50
21662;DHT22;10992;48.170;8.596;2022-08-21T12:43:58;28.50;84.00
21662;DHT22;10992;48.170;8.596;2022-08-21T12:46:43;27.80;81.80
21662;DHT22;10992;48.170;8.596;2022-08-21T12:49:37;28.80;81.50
21662;DHT22;10992;48.170;8.596;2022-08-21T12:52:14;28.50;81.00
21662;DHT22;10992;48.170;8.596;2022-08-21T12:54:44;29.00;81.50
21662;DHT22;10992;48.170;8.596;2022-08-21T12:57:24;29.90;82.80
21662;DHT22;10992;48.170;8.596;2022-08-21T12:59:57;30.10;79.20
21662;DHT22;10992;48.170;8.596;2022-08-21T13:02:28;29.30;81.20
21662;DHT22;10992;48.170;8.596;2022-08-21T13:04:56;27.50;83.80
21662;DHT22;10992;48.170;8.596;2022-08-21T13:07:32;27.30;83.10
21662;DHT22;10992;48.170;8.596;2022-08-21T13:10:07;27.10;84.10
21662;DHT22;10992;48.170;8.596;2022-08-21T13:12:41;27.10;85.90
21662;DHT22;10992;48.170;8.596;2022-08-21T13:15:09;27.60;84.30
21662;DHT22;10992;48.170;8.596;2022-08-21T13:17:39;27.00;83.70
21662;DHT22;10992;48.170;8.596;2022-08-21T13:20:26;27.50;87.10
21662;DHT22;10992;48.170;8.596;2022-08-21T13:22:54;27.30;86.60
21662;DHT22;10992;48.170;8.596;2022-08-21T13:25:26;27.80;84.20
21662;DHT22;10992;48.170;8.596;2022-08-21T13:28:08;27.70;84.60
21662;DHT22;10992;48.170;8.596;2022-08-21T13:30:43;27.20;89.30
21662;DHT22;10992;48.170;8.596;2022-08-21T13:33:12;28.20;84.40
21662;DHT22;10992;48.170;8.596;2022-08-21T13:35:56;29.10;80.90
21662;DHT22;10992;48.170;8.596;2022-08-21T13:38:29;29.30;81.70
21662;DHT22;10992;48.170;8.596;2022-08-21T13:41:01;29.20;80.20
21662;DHT22;10992;48.170;8.596;2022-08-21T13:43:36;28.70;83.60
21662;DHT22;10992;48.170;8.596;2022-08-21T13:46:08;28.80;83.50
21662;DHT22;10992;48.170;8.596;2022-08-21T13:48:36;28.90;83.00
21662;DHT22;10992;48.170;8.596;2022-08-21T13:51:04;29.00;82.50
21662;DHT22;10992;48.170;8.596;2022-08-21T13:56:04;28.90;81.00
21662;DHT22;10992;48.170;8.596;2022-08-21T13:58:55;28.30;80.50
21662;DHT22;10992;48.170;8.596;2022-08-21T14:01:36;28.90;79.70
21662;DHT22;10992;48.170;8.596;2022-08-21T14:04:22;28.50;81.60
21662;DHT22;10992;48.170;8.596;2022-08-21T14:06:50;28.80;80.00
21662;DHT22;10992;48.170;8.596;2022-08-21T14:09:39;28.00;79.20
21662;DHT22;10992;48.170;8.596;2022-08-21T14:12:16;28.20;80.50
21662;DHT22;10992;48.170;8.596;2022-08-21T14:14:50;28.50;82.60
21662;DHT22;10992;48.170;8.596;2022-08-21T14:17:33;28.50;82.70
21662;DHT22;10992;48.170;8.596;2022-08-21T14:20:03;28.40;81.40
21662;DHT22;10992;48.170;8.596;2022-08-21T14:22:45;28.60;81.00
21662;DHT22;10992;48.170;8.596;2022-08-21T14:27:57;28.20;79.70
21662;DHT22;10992;48.170;8.596;2022-08-21T14:30:34;28.40;83.50
21662;DHT22;10992;48.170;8.596;2022-08-21T14:33:04;29.10;82.40
21662;DHT22;10992;48.170;8.596;2022-08-21T14:35:34;29.20;80.70
21662;DHT22;10992;48.170;8.596;2022-08-21T14:38:01;29.30;81.50
21662;DHT22;10992;48.170;8.596;2022-08-21T14:40:28;29.80;82.90
21662;DHT22;10992;48.170;8.596;2022-08-21T14:42:55;29.80;75.40
21662;DHT22;10992;48.170;8.596;2022-08-21T14:45:29;29.40;76.40
21662;DHT22;10992;48.170;8.596;2022-08-21T14:47:58;29.10;74.60
21662;DHT22;10992;48.170;8.596;2022-08-21T14:50:25;28.90;75.60
21662;DHT22;10992;48.170;8.596;2022-08-21T14:52:54;28.60;73.50
21662;DHT22;10992;48.170;8.596;2022-08-21T14:55:21;28.50;73.40
21662;DHT22;10992;48.170;8.596;2022-08-21T14:57:51;28.60;70.60
21662;DHT22;10992;48.170;8.596;2022-08-21T15:00:21;28.10;72.20
21662;DHT22;10992;48.170;8.596;2022-08-21T15:03:02;28.30;73.60
21662;DHT22;10992;48.170;8.596;2022-08-21T15:05:29;28.00;73.20
21662;DHT22;10992;48.170;8.596;2022-08-21T15:08:00;28.50;71.70
21662;DHT22;10992;48.170;8.596;2022-08-21T15:10:27;28.30;73.70
21662;DHT22;10992;48.170;8.596;2022-08-21T15:12:56;27.70;73.70
21662;DHT22;10992;48.170;8.596;2022-08-21T15:15:23;27.40;72.90
21662;DHT22;10992;48.170;8.596;2022-08-21T15:17:50;27.30;76.60
21662;DHT22;10992;48.170;8.596;2022-08-21T15:20:17;27.50;72.40
21662;DHT22;10992;48.170;8.596;2022-08-21T15:22:44;27.60;74.60
21662;DHT22;10992;48.170;8.596;2022-08-21T15:25:14;27.80;72.60
21662;DHT22;10992;48.170;8.596;2022-08-21T15:27:41;27.50;73.40
21662;DHT22;10992;48.170;8.596;2022-08-21T15:30:08;27.60;75.20
21662;DHT22;10992;48.170;8.596;2022-08-21T15:32:35;27.60;74.10
21662;DHT22;10992;48.170;8.596;2022-08-21T15:35:03;27.50;71.80
21662;DHT22;10992;48.170;8.596;2022-08-21T15:37:30;27.40;72.50
21662;DHT22;10992;48.170;8.596;2022-08-21T15:39:57;27.10;71.50
21662;DHT22;10992;48.170;8.596;2022-08-21T15:42:25;26.70;71.60
21662;DHT22;10992;48.170;8.596;2022-08-21T15:44:56;26.90;73.20
21662;DHT22;10992;48.170;8.596;2022-08-21T15:47:30;27.10;71.90
21662;DHT22;10992;48.170;8.596;2022-08-21T15:49:57;27.20;72.10
21662;DHT22;10992;48.170;8.596;2022-08-21T15:52:24;26.90;73.40
21662;DHT22;10992;48.170;8.596;2022-08-21T15:54:51;26.60;73.50
21662;DHT22;10992;48.170;8.596;2022-08-21T15:57:21;26.50;74.60
21662;DHT22;10992;48.170;8.596;2022-08-21T15:59:53;26.40;78.70
21662;DHT22;10992;48.170;8.596;2022-08-21T16:02:30;26.20;79.20
21662;DHT22;10992;48.170;8.596;2022-08-21T16:04:57;26.10;80.90
21662;DHT22;10992;48.170;8.596;2022-08-21T16:07:25;26.50;77.10
21662;DHT22;10992;48.170;8.596;2022-08-21T16:09:52;26.60;74.90
21662;DHT22;10992;48.170;8.596;2022-08-21T16:12:28;26.60;73.50
21662;DHT22;10992;48.170;8.596;2022-08-21T16:14:58;26.20;73.80
21662;DHT22;10992;48.170;8.596;2022-08-21T16:17:32;25.90;75.80
21662;DHT22;10992;48.170;8.596;2022-08-21T16:20:01;25.60;74.90
21662;DHT22;10992;48.170;8.596;2022-08-21T16:22:28;25.40;79.50
21662;DHT22;10992;48.170;8.596;2022-08-21T16:25:11;25.40;79.70
21662;DHT22;10992;48.170;8.596;2022-08-21T16:27:40;25.50;78.70
21662;DHT22;10992;48.170;8.596;2022-08-21T16:30:09;25.50;79.10
21662;DHT22;10992;48.170;8.596;2022-08-21T16:32:37;25.50;80.20
21662;DHT22;10992;48.170;8.596;2022-08-21T16:35:04;25.50;78.30
21662;DHT22;10992;48.170;8.596;2022-08-21T16:37:31;25.40;78.50
21662;DHT22;10992;48.170;8.596;2022-08-21T16:39:58;25.20;79.30
21662;DHT22;10992;48.170;8.596;2022-08-21T16:42:25;25.00;79.20
21662;DHT22;10992;48.170;8.596;2022-08-21T16:44:53;24.70;78.20
21662;DHT22;10992;48.170;8.596;2022-08-21T16:47:20;24.50;79.20
21662;DHT22;10992;48.170;8.596;2022-08-21T16:49:53;24.40;81.20
21662;DHT22;10992;48.170;8.596;2022-08-21T16:52:20;24.10;79.80
21662;DHT22;10992;48.170;8.596;2022-08-21T16:54:47;24.00;80.50
21662;DHT22;10992;48.170;8.596;2022-08-21T16:57:13;23.90;80.80
21662;DHT22;10992;48.170;8.596;2022-08-21T16:59:41;23.80;82.40
21662;DHT22;10992;48.170;8.596;2022-08-21T17:02:29;23.70;84.50
21662;DHT22;10992;48.170;8.596;2022-08-21T17:04:57;23.60;85.10
21662;DHT22;10992;48.170;8.596;2022-08-21T17:07:24;23.30;86.30
21662;DHT22;10992;48.170;8.596;2022-08-21T17:09:51;23.20;88.00
21662;DHT22;10992;48.170;8.596;2022-08-21T17:12:18;23.00;89.20
21662;DHT22;10992;48.170;8.596;2022-08-21T17:14:46;22.90;88.80
21662;DHT22;10992;48.170;8.596;2022-08-21T17:17:14;22.80;90.20
21662;DHT22;10992;48.170;8.596;2022-08-21T17:19:42;22.70;90.40